createdAt,value
2018-04-19T00:01:58.960Z,120.40
2018-04-19T00:04:03.166Z,115.53
2018-04-19T00:06:07.740Z,112.63
2018-04-19T00:08:12.452Z,104.70
2018-04-19T00:10:18.420Z,98.93
2018-04-19T00:12:23.969Z,93.37
2018-04-19T00:14:27.801Z,78.67
2018-04-19T00:16:32.081Z,82.13
2018-04-19T00:18:36.247Z,69.37
2018-04-19T00:20:40.474Z,68.63
2018-04-19T00:22:44.448Z,64.67
2018-04-19T00:24:48.784Z,62.10
2018-04-19T00:26:53.076Z,57.57
2018-04-19T00:28:57.013Z,56.50
2018-04-19T00:31:01.271Z,53.43
2018-04-19T00:33:06.099Z,47.80
2018-04-19T00:35:11.225Z,44.10
2018-04-19T00:37:15.893Z,40.80
2018-04-19T00:39:22.087Z,40.47
2018-04-19T00:41:26.354Z,36.60
2018-04-19T00:43:30.552Z,38.60
2018-04-19T00:45:35.059Z,37.50
2018-04-19T00:47:39.221Z,35.70
2018-04-19T00:49:43.693Z,31.70
2018-04-19T00:51:48.270Z,34.10
2018-04-19T00:53:52.280Z,31.63
2018-04-19T00:55:56.336Z,30.60
2018-04-19T00:58:00.486Z,31.17
2018-04-19T01:00:05.134Z,25.07
2018-04-19T01:02:10.561Z,26.43
2018-04-19T01:04:15.493Z,26.80
2018-04-19T01:06:23.518Z,25.60
2018-04-19T01:08:29.589Z,24.90
2018-04-19T01:10:34.009Z,25.00
2018-04-19T01:12:38.221Z,23.60
2018-04-19T01:14:42.485Z,20.67
2018-04-19T01:16:46.774Z,21.20
2018-04-19T01:18:51.443Z,20.30
2018-04-19T01:20:55.712Z,21.90
2018-04-19T01:22:59.986Z,21.27
2018-04-19T01:25:04.733Z,19.33
2018-04-19T01:27:09.476Z,19.97
2018-04-19T01:29:13.921Z,17.83
2018-04-19T01:31:19.427Z,19.90
2018-04-19T01:33:25.441Z,16.67
2018-04-19T01:35:38.089Z,18.30
2018-04-19T01:37:42.539Z,18.53
2018-04-19T01:39:46.732Z,16.73
2018-04-19T01:41:50.987Z,15.50
2018-04-19T01:43:55.470Z,17.43
2018-04-19T01:45:59.627Z,16.73
2018-04-19T01:48:03.664Z,16.93
2018-04-19T01:50:09.224Z,18.10
2018-04-19T01:52:14.180Z,16.43
2018-04-19T01:54:19.913Z,15.53
2018-04-19T01:56:24.672Z,14.97
2018-04-19T01:58:28.739Z,15.23
2018-04-19T02:00:33.109Z,15.17
2018-04-19T02:02:37.304Z,15.40
2018-04-19T02:04:41.682Z,15.47
2018-04-19T02:06:45.914Z,15.33
2018-04-19T02:08:49.670Z,14.53
2018-04-19T02:10:54.177Z,14.53
2018-04-19T02:12:58.540Z,15.00
2018-04-19T02:15:02.556Z,15.40
2018-04-19T02:17:07.316Z,14.27
2018-04-19T02:19:12.631Z,14.50
2018-04-19T02:21:20.736Z,15.10
2018-04-19T02:23:25.188Z,13.40
2018-04-19T02:25:29.812Z,13.77
2018-04-19T02:27:34.223Z,12.60
2018-04-19T02:29:38.313Z,14.37
2018-04-19T02:31:42.543Z,13.20
2018-04-19T02:33:47.063Z,13.03
2018-04-19T02:35:51.135Z,13.00
2018-04-19T02:37:55.340Z,12.13
2018-04-19T02:40:00.071Z,13.97
2018-04-19T02:42:04.541Z,12.17
2018-04-19T02:44:09.016Z,14.00
2018-04-19T02:46:17.850Z,13.30
2018-04-19T02:48:24.028Z,14.70
2018-04-19T02:50:29.014Z,12.90
2018-04-19T02:52:33.042Z,13.97
2018-04-19T02:54:36.921Z,14.00
2018-04-19T02:56:41.214Z,13.10
2018-04-19T02:58:45.425Z,12.63
2018-04-19T03:00:49.445Z,13.30
2018-04-19T03:02:53.409Z,12.40
2018-04-19T03:04:57.987Z,13.53
2018-04-19T03:07:02.195Z,12.10
2018-04-19T03:09:08.104Z,12.00
2018-04-19T03:11:12.950Z,11.27
2018-04-19T03:13:19.155Z,13.10
2018-04-19T03:15:24.847Z,12.90
2018-04-19T03:17:29.071Z,12.30
2018-04-19T03:19:33.041Z,12.60
2018-04-19T03:21:36.953Z,13.03
2018-04-19T03:23:40.837Z,12.20
2018-04-19T03:25:45.003Z,12.60
2018-04-19T03:27:49.424Z,12.97
2018-04-19T03:29:53.872Z,11.87
2018-04-19T03:31:58.021Z,10.87
2018-04-19T03:34:01.886Z,13.00
2018-04-19T03:36:06.562Z,11.90
2018-04-19T03:38:11.383Z,12.80
2018-04-19T03:40:16.322Z,12.03
2018-04-19T03:42:21.930Z,11.90
2018-04-19T03:44:27.228Z,12.17
2018-04-19T03:46:31.174Z,13.07
2018-04-19T03:48:35.150Z,12.07
2018-04-19T03:50:39.506Z,11.80
2018-04-19T03:52:43.732Z,12.87
2018-04-19T03:54:47.693Z,12.30
2018-04-19T03:56:51.858Z,12.67
2018-04-19T03:58:55.714Z,11.80
2018-04-19T04:00:59.648Z,12.00
2018-04-19T04:03:03.845Z,12.00
2018-04-19T04:05:08.526Z,11.47
2018-04-19T04:07:13.122Z,10.77
2018-04-19T04:09:19.834Z,11.73
2018-04-19T04:11:24.424Z,12.50
2018-04-19T04:13:28.292Z,12.23
2018-04-19T04:15:32.498Z,12.30
2018-04-19T04:17:47.298Z,11.93
2018-04-19T04:20:05.463Z,10.97
2018-04-19T04:23:23.519Z,11.17
2018-04-19T04:25:27.416Z,12.77
2018-04-19T04:27:31.577Z,12.13
2018-04-19T04:29:35.485Z,12.00
2018-04-19T04:31:39.602Z,12.30
2018-04-19T04:33:43.791Z,11.50
2018-04-19T04:35:47.827Z,11.97
2018-04-19T04:37:51.858Z,11.80
2018-04-19T04:39:56.286Z,12.63
2018-04-19T04:42:00.174Z,11.10
2018-04-19T04:44:04.190Z,11.63
2018-04-19T04:46:12.440Z,10.70
2018-04-19T04:48:17.082Z,11.73
2018-04-19T04:50:23.620Z,11.33
2018-04-19T04:52:28.100Z,11.17
2018-04-19T04:54:32.204Z,12.13
2018-04-19T04:56:36.521Z,12.03
2018-04-19T04:58:40.669Z,11.90
2018-04-19T05:00:44.705Z,12.20
2018-04-19T05:02:48.910Z,12.40
2018-04-19T05:04:54.512Z,12.40
2018-04-19T05:06:58.545Z,11.93
2018-04-19T05:09:02.474Z,12.60
2018-04-19T05:11:08.270Z,11.87
2018-04-19T05:13:12.728Z,11.47
2018-04-19T05:15:17.507Z,12.27
2018-04-19T05:17:23.406Z,12.73
2018-04-19T05:19:27.302Z,12.83
2018-04-19T05:21:31.183Z,12.67
2018-04-19T05:23:35.716Z,13.73
2018-04-19T05:25:40.239Z,13.80
2018-04-19T05:27:44.112Z,13.57
2018-04-19T05:29:48.432Z,13.37
2018-04-19T05:31:52.254Z,12.13
2018-04-19T05:33:56.098Z,15.53
2018-04-19T05:36:00.416Z,13.10
2018-04-19T05:38:04.736Z,13.40
2018-04-19T05:40:17.009Z,13.30
2018-04-19T05:42:23.190Z,13.13
2018-04-19T05:44:27.056Z,13.97
2018-04-19T05:46:31.280Z,13.50
2018-04-19T05:48:39.576Z,13.80
2018-04-19T05:50:43.543Z,14.00
2018-04-19T05:52:47.365Z,13.57
2018-04-19T05:54:51.947Z,13.83
2018-04-19T05:56:55.968Z,13.83
2018-04-19T05:59:00.483Z,14.40
2018-04-19T06:01:05.150Z,14.00
2018-04-19T06:03:10.436Z,15.53
2018-04-19T06:05:17.982Z,14.73
2018-04-19T06:07:25.134Z,176.07
2018-04-19T06:09:29.169Z,174.70
2018-04-19T06:11:34.461Z,293.73
2018-04-19T06:13:39.474Z,266.10
2018-04-19T06:15:44.384Z,134.03
2018-04-19T06:17:49.329Z,74.50
2018-04-19T06:19:53.912Z,61.10
2018-04-19T06:21:58.128Z,45.43
2018-04-19T06:24:02.008Z,39.47
2018-04-19T06:26:06.977Z,34.73
2018-04-19T06:28:12.296Z,33.10
2018-04-19T06:30:16.856Z,546.17
2018-04-19T06:32:21.835Z,194.23
2018-04-19T06:34:27.232Z,155.53
2018-04-19T06:36:31.566Z,150.70
2018-04-19T06:38:35.764Z,172.33
2018-04-19T06:40:39.943Z,169.90
2018-04-19T06:42:43.827Z,193.63
2018-04-19T06:44:48.114Z,183.83
2018-04-19T06:46:52.764Z,127.00
2018-04-19T06:48:57.058Z,97.93
2018-04-19T06:51:00.995Z,70.27
2018-04-19T06:53:06.244Z,61.73
2018-04-19T06:55:11.769Z,54.47
2018-04-19T06:57:18.933Z,43.70
2018-04-19T06:59:24.353Z,42.30
2018-04-19T07:01:29.064Z,42.83
2018-04-19T07:03:33.281Z,40.83
2018-04-19T07:05:37.152Z,184.43
2018-04-19T07:07:41.385Z,131.60
2018-04-19T07:09:45.506Z,175.33
2018-04-19T07:11:50.668Z,217.53
2018-04-19T07:13:55.045Z,126.27
2018-04-19T07:15:58.988Z,130.13
2018-04-19T07:18:02.904Z,97.57
2018-04-19T07:20:08.808Z,667.90
2018-04-19T07:22:14.841Z,197.07
2018-04-19T07:24:20.825Z,207.47
2018-04-19T07:26:25.865Z,897.53
2018-04-19T07:28:30.133Z,300.60
2018-04-19T07:30:34.113Z,184.97
2018-04-19T07:32:38.493Z,174.77
2018-04-19T07:34:42.601Z,105.53
2018-04-19T07:36:47.399Z,263.87
2018-04-19T07:38:52.419Z,449.97
2018-04-19T07:40:56.840Z,482.60
2018-04-19T07:43:01.989Z,294.43
2018-04-19T07:45:08.771Z,204.77
2018-04-19T07:47:13.408Z,462.87
2018-04-19T07:49:20.935Z,313.27
2018-04-19T07:51:26.678Z,299.93
2018-04-19T07:53:30.609Z,598.73
2018-04-19T07:55:34.971Z,361.20
2018-04-19T07:57:39.279Z,402.63
2018-04-19T07:59:43.914Z,240.03
2018-04-19T08:01:48.405Z,530.83
2018-04-19T08:03:52.950Z,211.30
2018-04-19T08:05:57.528Z,283.50
2018-04-19T08:08:01.507Z,202.43
2018-04-19T08:10:06.486Z,345.80
2018-04-19T08:12:11.951Z,404.60
2018-04-19T08:14:17.489Z,129.60
2018-04-19T08:16:25.218Z,467.47
2018-04-19T08:18:29.478Z,392.00
2018-04-19T08:20:33.807Z,254.33
2018-04-19T08:22:38.270Z,194.67
2018-04-19T08:24:42.284Z,198.67
2018-04-19T08:26:47.102Z,103.07
2018-04-19T08:28:53.038Z,127.50
2018-04-19T08:30:59.846Z,121.17
2018-04-19T08:33:05.372Z,594.63
2018-04-19T08:35:10.386Z,308.00
2018-04-19T08:37:18.333Z,252.93
2018-04-19T08:39:24.436Z,434.77
2018-04-19T08:41:30.205Z,360.63
2018-04-19T08:43:35.199Z,444.93
2018-04-19T08:45:39.206Z,504.93
2018-04-19T08:47:43.595Z,333.13
2018-04-19T08:49:48.076Z,730.87
2018-04-19T08:51:52.318Z,538.33
2018-04-19T08:53:56.897Z,660.60
2018-04-19T08:56:01.458Z,400.60
2018-04-19T08:58:05.983Z,311.80
2018-04-19T09:00:12.616Z,309.03
2018-04-19T09:02:22.018Z,219.43
2018-04-19T09:04:31.284Z,177.63
2018-04-19T09:06:35.975Z,122.97
2018-04-19T09:08:40.346Z,84.00
2018-04-19T09:10:44.229Z,98.53
2018-04-19T09:12:48.533Z,107.13
2018-04-19T09:14:52.452Z,77.53
2018-04-19T09:16:57.980Z,53.23
2018-04-19T09:19:03.696Z,57.00
2018-04-19T09:21:10.755Z,59.40
2018-04-19T09:23:19.109Z,235.77
2018-04-19T09:25:24.331Z,538.00
2018-04-19T09:27:28.293Z,276.70
2018-04-19T09:29:32.406Z,145.50
2018-04-19T09:31:36.985Z,98.23
2018-04-19T09:33:41.009Z,105.93
2018-04-19T09:35:45.162Z,131.90
2018-04-19T09:37:49.628Z,201.17
2018-04-19T09:39:53.529Z,594.23
2018-04-19T09:41:57.465Z,636.93
2018-04-19T09:44:01.737Z,596.23
2018-04-19T09:46:07.350Z,554.00
2018-04-19T09:48:13.567Z,694.93
2018-04-19T09:50:21.935Z,963.23
2018-04-19T09:52:26.043Z,727.17
2018-04-19T09:54:30.554Z,624.80
2018-04-19T09:56:35.942Z,560.07
2018-04-19T09:58:40.163Z,279.10
2018-04-19T10:00:45.838Z,341.63
2018-04-19T10:02:50.669Z,370.37
2018-04-19T10:05:00.173Z,280.93
2018-04-19T10:07:04.118Z,959.00
2018-04-19T10:09:08.468Z,428.83
2018-04-19T10:11:13.364Z,172.37
2018-04-19T10:13:18.090Z,725.00
2018-04-19T10:15:23.993Z,364.47
2018-04-19T10:17:28.088Z,97.60
2018-04-19T10:19:32.059Z,49.60
2018-04-19T10:21:36.337Z,43.40
2018-04-19T10:23:41.053Z,34.80
2018-04-19T10:27:54.652Z,213.03
2018-04-19T10:29:58.569Z,398.17
2018-04-19T10:32:02.582Z,349.60
2018-04-19T10:34:07.706Z,152.73
2018-04-19T10:36:14.237Z,107.23
2018-04-19T10:38:19.837Z,91.77
2018-04-19T10:40:24.552Z,81.57
2018-04-19T10:42:28.658Z,61.93
2018-04-19T10:44:32.874Z,56.03
2018-04-19T10:46:37.744Z,55.33
2018-04-19T10:48:41.814Z,62.10
2018-04-19T10:50:45.752Z,366.33
2018-04-19T10:52:49.975Z,833.97
2018-04-19T10:54:53.904Z,520.57
2018-04-19T10:56:57.834Z,236.10
2018-04-19T10:59:02.189Z,153.77
2018-04-19T11:01:07.333Z,293.67
2018-04-19T11:03:13.150Z,964.87
2018-04-19T11:05:18.926Z,210.33
2018-04-19T11:07:23.980Z,999.90
2018-04-19T11:09:28.307Z,999.90
2018-04-19T11:11:32.765Z,76.10
2018-04-19T11:13:36.878Z,66.47
2018-04-19T11:15:40.789Z,51.40
2018-04-19T11:17:45.257Z,47.97
2018-04-19T11:19:49.532Z,43.63
2018-04-19T11:21:53.487Z,40.17
2018-04-19T11:23:58.016Z,39.60
2018-04-19T11:26:01.984Z,40.57
2018-04-19T11:28:07.801Z,33.77
2018-04-19T11:30:14.209Z,36.87
2018-04-19T11:32:22.510Z,35.10
2018-04-19T11:34:27.450Z,30.27
2018-04-19T11:36:34.054Z,999.90
2018-04-19T11:38:38.581Z,754.87
2018-04-19T11:40:42.938Z,999.90
2018-04-19T11:42:47.616Z,999.90
2018-04-19T11:44:51.664Z,840.20
2018-04-19T11:46:55.633Z,352.17
2018-04-19T11:48:59.945Z,275.43
2018-04-19T11:51:06.073Z,91.93
2018-04-19T11:53:11.960Z,42.50
2018-04-19T11:55:17.335Z,31.93
2018-04-19T11:57:23.160Z,37.97
2018-04-19T11:59:27.505Z,29.50
2018-04-19T12:01:32.667Z,26.33
2018-04-19T12:03:36.842Z,22.60
2018-04-19T12:05:40.750Z,21.90
2018-04-19T12:07:45.145Z,21.67
2018-04-19T12:09:50.418Z,23.53
2018-04-19T12:11:54.400Z,100.90
2018-04-19T12:13:58.679Z,224.33
2018-04-19T12:16:02.745Z,164.43
2018-04-19T12:18:08.511Z,147.17
2018-04-19T12:20:13.470Z,109.50
2018-04-19T12:22:18.483Z,121.23
2018-04-19T12:24:23.150Z,103.67
2018-04-19T12:26:27.867Z,84.30
2018-04-19T12:28:33.866Z,82.90
2018-04-19T12:30:39.281Z,96.50
2018-04-19T12:32:43.993Z,91.10
2018-04-19T12:34:50.196Z,248.37
2018-04-19T12:36:54.905Z,97.90
2018-04-19T12:38:59.694Z,179.87
2018-04-19T12:41:03.833Z,170.90
2018-04-19T12:43:09.271Z,172.87
2018-04-19T12:45:15.437Z,194.83
2018-04-19T12:47:21.639Z,165.87
2018-04-19T12:49:26.772Z,179.07
2018-04-19T12:51:32.275Z,195.10
2018-04-19T12:53:36.649Z,175.47
2018-04-19T12:55:40.924Z,129.37
2018-04-19T12:57:45.272Z,135.47
2018-04-19T12:59:49.563Z,113.17
2018-04-19T13:01:53.816Z,100.80
2018-04-19T13:03:58.181Z,82.70
2018-04-19T13:06:02.657Z,84.77
2018-04-19T13:08:07.973Z,77.67
2018-04-19T13:10:13.047Z,58.37
2018-04-19T13:12:19.344Z,62.97
2018-04-19T13:14:25.192Z,84.70
2018-04-19T13:16:29.474Z,70.47
2018-04-19T13:18:35.430Z,69.93
2018-04-19T13:20:39.596Z,511.07
2018-04-19T13:22:43.781Z,117.17
2018-04-19T13:24:47.900Z,114.90
2018-04-19T13:26:51.902Z,101.07
2018-04-19T13:28:56.593Z,99.93
2018-04-19T13:31:00.758Z,82.63
2018-04-19T13:33:04.938Z,76.70
2018-04-19T13:35:10.478Z,72.30
2018-04-19T13:37:14.931Z,62.10
2018-04-19T13:39:20.981Z,53.60
2018-04-19T13:41:25.785Z,56.90
2018-04-19T13:43:29.766Z,51.53
2018-04-19T13:45:35.544Z,48.90
2018-04-19T13:47:39.933Z,47.03
2018-04-19T13:49:44.473Z,39.67
2018-04-19T13:51:48.448Z,141.80
2018-04-19T13:53:52.986Z,93.10
2018-04-19T13:55:57.232Z,254.80
2018-04-19T13:58:01.099Z,199.60
2018-04-19T14:00:05.360Z,181.30
2018-04-19T14:02:12.315Z,178.27
2018-04-19T14:04:18.274Z,158.80
2018-04-19T14:06:23.521Z,147.17
2018-04-19T14:08:27.568Z,139.40
2018-04-19T14:10:33.027Z,131.67
2018-04-19T14:12:37.380Z,123.90
2018-04-19T14:14:41.294Z,119.50
2018-04-19T14:16:45.254Z,106.70
2018-04-19T14:18:49.419Z,103.73
2018-04-19T14:20:53.442Z,98.23
2018-04-19T14:22:57.298Z,91.43
2018-04-19T14:25:01.506Z,92.77
2018-04-19T14:27:06.094Z,84.57
2018-04-19T14:29:11.265Z,77.80
2018-04-19T14:31:16.400Z,71.13
2018-04-19T14:33:21.941Z,69.10
2018-04-19T14:35:26.044Z,65.70
2018-04-19T14:37:30.208Z,63.63
2018-04-19T14:39:35.169Z,61.03
2018-04-19T14:41:39.196Z,60.20
2018-04-19T14:43:47.841Z,54.10
2018-04-19T14:45:51.874Z,53.40
2018-04-19T14:47:55.809Z,52.07
2018-04-19T14:49:59.982Z,50.40
2018-04-19T14:52:04.321Z,45.30
2018-04-19T14:54:08.249Z,44.37
2018-04-19T14:56:14.100Z,44.50
2018-04-19T14:58:21.027Z,43.20
2018-04-19T15:00:25.671Z,41.63
2018-04-19T15:02:30.093Z,38.67
2018-04-19T15:04:35.533Z,36.37
2018-04-19T15:06:39.376Z,34.40
2018-04-19T15:08:45.266Z,33.77
2018-04-19T15:10:49.197Z,33.50
2018-04-19T15:12:53.121Z,31.90
2018-04-19T15:14:57.361Z,32.03
2018-04-19T15:17:01.272Z,29.10
2018-04-19T15:19:08.769Z,29.17
2018-04-19T15:21:13.708Z,27.40
2018-04-19T15:23:18.947Z,26.70
2018-04-19T15:25:23.987Z,25.30
2018-04-19T15:27:28.898Z,25.13
2018-04-19T15:29:37.399Z,23.53
2018-04-19T15:31:41.645Z,22.83
2018-04-19T15:33:46.513Z,22.87
2018-04-19T15:35:50.474Z,22.10
2018-04-19T15:37:54.436Z,20.17
2018-04-19T15:39:58.815Z,19.10
2018-04-19T15:42:02.864Z,19.57
2018-04-19T15:44:09.226Z,19.23
2018-04-19T15:46:19.104Z,18.70
2018-04-19T15:48:23.609Z,19.47
2018-04-19T15:50:27.551Z,18.37
2018-04-19T15:52:34.090Z,17.30
2018-04-19T15:54:37.973Z,17.27
2018-04-19T15:56:41.856Z,18.50
2018-04-19T15:58:46.171Z,16.60
2018-04-19T16:00:50.053Z,17.23
2018-04-19T16:02:54.029Z,16.67
2018-04-19T16:04:58.308Z,16.67
2018-04-19T16:07:02.656Z,16.27
2018-04-19T16:09:09.714Z,15.47
2018-04-19T16:11:15.632Z,15.77
2018-04-19T16:13:20.742Z,14.93
2018-04-19T16:15:25.149Z,14.77
2018-04-19T16:17:29.649Z,17.23
2018-04-19T16:19:35.645Z,14.57
2018-04-19T16:21:39.517Z,14.73
2018-04-19T16:23:43.912Z,15.60
2018-04-19T16:25:47.849Z,13.63
2018-04-19T16:27:52.096Z,14.80
2018-04-19T16:29:56.377Z,13.37
2018-04-19T16:32:00.365Z,13.50
2018-04-19T16:34:23.353Z,13.17
2018-04-19T16:36:28.404Z,13.70
2018-04-19T16:38:33.982Z,13.53
2018-04-19T16:40:37.797Z,13.97
2018-04-19T16:42:42.066Z,13.20
2018-04-19T16:44:46.064Z,13.33
2018-04-19T16:46:49.929Z,13.10
2018-04-19T16:48:54.080Z,13.10
2018-04-19T16:50:57.941Z,12.63
2018-04-19T16:53:02.232Z,13.87
2018-04-19T16:55:06.872Z,12.87
2018-04-19T16:57:11.663Z,12.60
2018-04-19T16:59:17.341Z,12.13
2018-04-19T17:01:22.582Z,12.30
2018-04-19T17:03:26.444Z,11.83
2018-04-19T17:05:30.377Z,14.43
2018-04-19T17:07:38.063Z,14.50
2018-04-19T17:09:41.989Z,12.83
2018-04-19T17:11:45.858Z,13.37
2018-04-19T17:13:49.972Z,11.87
2018-04-19T17:15:54.002Z,12.93
2018-04-19T17:17:57.954Z,12.63
2018-04-19T17:20:02.484Z,14.00
2018-04-19T17:22:07.236Z,12.37
2018-04-19T17:24:12.046Z,12.13
2018-04-19T17:26:18.050Z,12.10
2018-04-19T17:28:23.976Z,12.63
2018-04-19T17:30:27.867Z,12.17
2018-04-19T17:32:33.962Z,14.87
2018-04-19T17:34:38.022Z,11.80
2018-04-19T17:36:42.330Z,13.60
2018-04-19T17:38:47.966Z,14.97
2018-04-19T17:40:51.977Z,15.80
2018-04-19T17:42:56.101Z,12.60
2018-04-19T17:45:00.406Z,15.87
2018-04-19T17:47:04.732Z,15.53
2018-04-19T17:49:09.431Z,16.50
2018-04-19T17:51:16.772Z,14.93
2018-04-19T17:53:22.528Z,16.73
2018-04-19T17:55:34.297Z,17.20
2018-04-19T17:57:38.921Z,18.40
2018-04-19T17:59:42.809Z,17.33
2018-04-19T18:01:46.644Z,16.60
2018-04-19T18:03:50.814Z,16.03
2018-04-19T18:05:54.696Z,17.73
2018-04-19T18:07:58.540Z,18.80
2018-04-19T18:10:02.750Z,18.03
2018-04-19T18:12:07.905Z,18.50
2018-04-19T18:14:13.527Z,19.13
2018-04-19T18:16:19.413Z,19.20
2018-04-19T18:18:24.590Z,17.70
2018-04-19T18:20:28.511Z,19.17
2018-04-19T18:22:33.764Z,18.93
2018-04-19T18:24:37.805Z,17.97
2018-04-19T18:26:41.718Z,19.20
2018-04-19T18:28:46.919Z,18.80
2018-04-19T18:30:50.752Z,19.90
2018-04-19T18:32:54.600Z,20.27
2018-04-19T18:34:58.888Z,21.50
2018-04-19T18:37:04.248Z,19.53
2018-04-19T18:39:09.135Z,23.80
2018-04-19T18:41:14.322Z,21.03
2018-04-19T18:43:21.173Z,19.23
2018-04-19T18:45:25.321Z,18.67
2018-04-19T18:47:30.204Z,19.00
2018-04-19T18:49:35.692Z,19.17
2018-04-19T18:51:39.756Z,17.57
2018-04-19T18:53:43.945Z,18.23
2018-04-19T18:55:47.814Z,18.77
2018-04-19T18:57:51.686Z,17.10
2018-04-19T18:59:55.996Z,17.63
2018-04-19T19:02:00.059Z,16.40
2018-04-19T19:04:04.794Z,18.10
2018-04-19T19:06:10.388Z,17.37
2018-04-19T19:08:15.653Z,19.57
2018-04-19T19:10:21.410Z,16.60
2018-04-19T19:12:26.096Z,17.83
2018-04-19T19:14:34.788Z,16.00
2018-04-19T19:16:38.819Z,16.77
2018-04-19T19:18:53.969Z,17.73
2018-04-19T19:20:57.949Z,16.70
2018-04-19T19:23:02.274Z,17.77
2018-04-19T19:25:09.557Z,17.37
2018-04-19T19:27:15.403Z,17.60
2018-04-19T19:29:20.693Z,18.60
2018-04-19T19:31:25.043Z,18.90
2018-04-19T19:33:29.022Z,17.33
2018-04-19T19:35:37.438Z,16.10
2018-04-19T19:37:41.669Z,16.70
2018-04-19T19:39:45.541Z,17.33
2018-04-19T19:41:49.488Z,17.17
2018-04-19T19:43:53.638Z,18.30
2018-04-19T19:45:57.535Z,17.30
2018-04-19T19:48:01.545Z,17.77
2018-04-19T19:50:07.717Z,19.17
2018-04-19T19:52:12.656Z,16.97
2018-04-19T19:54:17.560Z,17.27
2018-04-19T19:56:24.214Z,18.03
2018-04-19T19:58:28.576Z,16.70
2018-04-19T20:00:32.559Z,17.80
2018-04-19T20:02:36.712Z,19.93
2018-04-19T20:04:40.638Z,24.67
2018-04-19T20:06:44.670Z,20.50
2018-04-19T20:08:48.929Z,20.23
2018-04-19T20:10:53.137Z,19.70
2018-04-19T20:12:57.029Z,17.70
2018-04-19T20:15:01.896Z,19.97
2018-04-19T20:17:07.904Z,18.73
2018-04-19T20:19:12.533Z,18.20
2018-04-19T20:21:17.836Z,18.40
2018-04-19T20:23:22.795Z,19.80
2018-04-19T20:25:27.159Z,18.83
2018-04-19T20:27:35.201Z,18.10
2018-04-19T20:29:39.401Z,19.40
2018-04-19T20:31:43.451Z,22.30
2018-04-19T20:33:47.817Z,22.10
2018-04-19T20:35:51.868Z,22.60
2018-04-19T20:37:55.893Z,22.47
2018-04-19T20:40:00.452Z,87.67
2018-04-19T20:42:05.747Z,339.37
2018-04-19T20:44:10.409Z,428.73
2018-04-19T20:46:15.834Z,230.43
2018-04-19T20:48:20.569Z,181.10
2018-04-19T20:50:25.803Z,141.43
2018-04-19T20:52:29.969Z,111.73
2018-04-19T20:54:36.441Z,99.63
2018-04-19T20:56:40.589Z,74.70
2018-04-19T20:58:44.995Z,73.53
2018-04-19T21:00:48.856Z,71.67
2018-04-19T21:02:52.868Z,87.47
2018-04-19T21:04:58.131Z,367.60
2018-04-19T21:07:02.197Z,504.50
2018-04-19T21:09:07.845Z,412.00
2018-04-19T21:11:12.797Z,285.30
2018-04-19T21:13:17.595Z,240.63
2018-04-19T21:15:23.934Z,361.53
2018-04-19T21:17:28.127Z,201.87
2018-04-19T21:19:33.677Z,138.40
2018-04-19T21:21:37.597Z,114.60
2018-04-19T21:23:41.869Z,125.27
2018-04-19T21:25:45.956Z,105.40
2018-04-19T21:27:49.884Z,111.23
2018-04-19T21:29:54.265Z,100.80
2018-04-19T21:31:58.345Z,94.13
2018-04-19T21:34:02.551Z,373.30
2018-04-19T21:36:09.029Z,325.50
2018-04-19T21:38:13.509Z,355.87
2018-04-19T21:40:19.035Z,214.67
2018-04-19T21:42:24.955Z,146.97
2018-04-19T21:44:28.908Z,138.73
2018-04-19T21:46:36.636Z,130.33
2018-04-19T21:48:40.817Z,129.27
2018-04-19T21:50:44.660Z,129.83
2018-04-19T21:52:48.512Z,120.07
2018-04-19T21:54:52.865Z,105.67
2018-04-19T21:56:56.921Z,100.43
2018-04-19T21:59:00.836Z,90.93
2018-04-19T22:01:08.439Z,81.37
2018-04-19T22:03:13.696Z,93.40
2018-04-19T22:05:19.934Z,81.50
2018-04-19T22:07:25.352Z,82.17
2018-04-19T22:09:29.543Z,73.30
2018-04-19T22:11:37.579Z,74.50
2018-04-19T22:13:42.599Z,70.20
2018-04-19T22:15:46.814Z,72.70
2018-04-19T22:17:51.839Z,70.03
2018-04-19T22:19:56.220Z,65.93
2018-04-19T22:22:00.109Z,57.77
2018-04-19T22:24:05.805Z,56.77
2018-04-19T22:26:10.727Z,54.60
2018-04-19T22:28:15.839Z,58.93
2018-04-19T22:30:21.211Z,57.63
2018-04-19T22:32:25.593Z,53.20
2018-04-19T22:34:29.510Z,52.07
2018-04-19T22:36:34.716Z,52.07
2018-04-19T22:38:39.068Z,52.60
2018-04-19T22:40:42.924Z,46.50
2018-04-19T22:42:46.977Z,45.40
2018-04-19T22:44:51.493Z,47.37
2018-04-19T22:46:55.415Z,44.93
2018-04-19T22:48:59.328Z,44.50
2018-04-19T22:51:03.893Z,45.57
2018-04-19T22:53:09.283Z,43.20
2018-04-19T22:55:15.437Z,40.83
2018-04-19T22:57:23.352Z,43.53
2018-04-19T22:59:27.500Z,40.13
2018-04-19T23:01:32.342Z,39.20
2018-04-19T23:03:37.072Z,38.33
2018-04-19T23:05:42.768Z,40.33
2018-04-19T23:07:47.535Z,36.57
2018-04-19T23:09:52.009Z,33.50
2018-04-19T23:11:55.857Z,33.00
2018-04-19T23:13:59.755Z,34.00
2018-04-19T23:16:04.478Z,32.80
2018-04-19T23:18:09.270Z,34.40
2018-04-19T23:20:14.252Z,33.83
2018-04-19T23:22:23.434Z,32.97
2018-04-19T23:24:27.681Z,33.20
2018-04-19T23:26:35.261Z,32.70
2018-04-19T23:28:39.409Z,30.90
2018-04-19T23:30:43.638Z,31.27
2018-04-19T23:32:48.010Z,33.03
2018-04-19T23:34:52.117Z,31.73
2018-04-19T23:36:56.275Z,31.70
2018-04-19T23:39:00.179Z,29.90
2018-04-19T23:41:05.187Z,31.17
2018-04-19T23:43:10.066Z,30.80
2018-04-19T23:45:15.937Z,31.17
2018-04-19T23:47:23.314Z,29.47
2018-04-19T23:49:27.675Z,29.57
2018-04-19T23:53:51.959Z,27.40
2018-04-19T23:55:56.013Z,26.30
2018-04-19T23:58:00.079Z,25.60
